Trinity, Alabama
Current Conditions -  °F | °C
As of 10:53 AM on Friday 24 Oct 2014 (Local Time) from KDCU Reporting Station
Clear Clear  
Wind Chill: 18°   Ceiling: Unl
Heat Index: 18°   Visibility: 10mi
Dew Point:   Wind: 5mph
Humidity: 50%   Direction: NA
Pressure: 30.13"   Gusts: NA
Location:  34.61°N, 87.09°W
Report Text: KDCU 241553Z AUTO VRB04KT 10SM CLR 18/07 A3013 RMK AO2 SLP198 T01780072
Loading
Personal Weather Stations






























Interactive Weather Map
Tropical Storm Tracking
New forecast layout! Learn more

10-Day Weather Forecast

Advertisements
Track Severe Weather on mobile